Time;durP1;ratioP1;P1;durP2;ratioP2;P2;SDS_P1;SDS_P2;PMS_P1;PMS_P2;Temp;Humidity;BMP_temperature;BMP_pressure;BME280_temperature;BME280_humidity;BME280_pressure;Samples;Min_cycle;Max_cycle;Signal;HPM_P1;HPM_P2
2024/01/29 00:00:52;;;;;;;6.82;3.70;;;5.00;99.90;;;;;;5093715;28;20449;-89
2024/01/29 00:03:17;;;;;;;5.95;3.58;;;5.00;99.90;;;;;;5090897;28;20114;-90
2024/01/29 00:05:44;;;;;;;5.22;3.50;;;5.00;99.90;;;;;;5076150;28;20048;-89
2024/01/29 00:08:10;;;;;;;5.45;3.60;;;5.00;99.90;;;;;;5074039;28;20040;-88
2024/01/29 00:10:35;;;;;;;5.95;3.70;;;6.00;99.90;;;;;;5092527;28;20066;-89
2024/01/29 00:13:01;;;;;;;7.35;4.10;;;4.90;99.90;;;;;;5077003;28;20032;-88
2024/01/29 00:15:27;;;;;;;4.93;3.55;;;4.90;99.90;;;;;;5089862;28;20047;-89
2024/01/29 00:17:52;;;;;;;4.47;3.40;;;4.90;99.90;;;;;;5096761;28;20043;-90
2024/01/29 00:20:18;;;;;;;5.47;3.53;;;6.00;99.90;;;;;;5090327;28;20024;-90
2024/01/29 00:22:43;;;;;;;7.30;4.30;;;6.10;99.90;;;;;;5075604;28;20094;-90
2024/01/29 00:25:09;;;;;;;5.78;3.63;;;6.10;99.90;;;;;;5088392;28;20032;-88
2024/01/29 00:27:35;;;;;;;5.95;3.53;;;6.00;99.90;;;;;;5070726;28;20044;-89
2024/01/29 00:30:01;;;;;;;5.30;3.58;;;5.90;99.90;;;;;;5074632;28;20115;-89
2024/01/29 00:32:30;;;;;;;4.93;3.30;;;4.80;99.90;;;;;;5073614;28;20035;-87
2024/01/29 00:34:56;;;;;;;8.43;4.80;;;4.80;99.90;;;;;;5072998;28;20484;-88
2024/01/29 00:37:26;;;;;;;4.85;3.33;;;4.80;99.90;;;;;;5076401;28;20037;-88
2024/01/29 00:39:52;;;;;;;4.78;3.28;;;5.50;99.90;;;;;;5072349;28;20039;-90
2024/01/29 00:42:18;;;;;;;5.75;3.58;;;5.50;99.90;;;;;;5087262;28;20474;-89
2024/01/29 00:44:44;;;;;;;5.93;3.60;;;5.60;99.90;;;;;;5076896;28;20047;-89
2024/01/29 00:47:11;;;;;;;6.15;3.50;;;4.70;99.90;;;;;;5075348;28;20035;-89
2024/01/29 00:49:36;;;;;;;5.57;3.47;;;5.70;99.90;;;;;;5099223;28;20054;-89
2024/01/29 00:52:04;;;;;;;5.40;3.53;;;5.50;99.90;;;;;;5072539;28;20037;-89
2024/01/29 00:54:30;;;;;;;4.88;3.20;;;4.60;99.90;;;;;;5091600;28;20165;-89
2024/01/29 00:56:56;;;;;;;6.07;3.67;;;4.60;99.90;;;;;;5091182;28;20500;-89
2024/01/29 00:59:22;;;;;;;6.00;3.22;;;5.50;99.90;;;;;;5068699;28;20126;-90
2024/01/29 01:01:48;;;;;;;5.00;3.22;;;4.70;99.90;;;;;;5069563;28;20032;-90
2024/01/29 01:04:14;;;;;;;5.80;3.50;;;4.50;99.90;;;;;;5072692;28;20036;-89
2024/01/29 01:06:40;;;;;;;6.35;3.90;;;4.50;99.90;;;;;;5098248;28;20051;-88
2024/01/29 01:09:06;;;;;;;5.28;3.33;;;4.50;99.90;;;;;;5105746;27;20035;-88
2024/01/29 01:11:31;;;;;;;4.88;3.38;;;5.40;99.90;;;;;;5126221;27;20031;-89
2024/01/29 01:13:57;;;;;;;4.72;3.30;;;5.20;99.90;;;;;;5095015;28;20037;-89
2024/01/29 01:16:23;;;;;;;6.20;3.22;;;4.50;99.90;;;;;;5092471;28;20507;-89
2024/01/29 01:18:48;;;;;;;5.15;3.40;;;4.70;99.90;;;;;;5086331;28;20047;-89
2024/01/29 01:21:15;;;;;;;6.38;3.20;;;5.80;99.90;;;;;;5091301;28;20039;-88
2024/01/29 01:23:41;;;;;;;5.72;3.70;;;5.60;99.90;;;;;;5090335;28;20036;-89
2024/01/29 01:26:06;;;;;;;4.78;3.10;;;5.40;99.90;;;;;;5088941;28;20043;-89
2024/01/29 01:28:32;;;;;;;5.95;3.35;;;5.60;99.90;;;;;;5074764;28;20032;-89
2024/01/29 01:30:57;;;;;;;6.70;3.60;;;5.20;99.90;;;;;;5096204;28;20039;-89
2024/01/29 01:33:23;;;;;;;6.72;3.40;;;4.40;99.90;;;;;;5070700;28;21270;-90
2024/01/29 01:35:49;;;;;;;5.47;3.05;;;4.40;99.90;;;;;;5073168;28;20063;-90
2024/01/29 01:38:14;;;;;;;6.22;3.30;;;4.40;99.90;;;;;;5094006;28;20047;-88
2024/01/29 01:40:40;;;;;;;6.35;3.75;;;4.40;99.90;;;;;;5091949;28;20067;-89
2024/01/29 01:43:20;;;;;;;7.55;3.78;;;4.40;99.90;;;;;;5072942;28;20040;-88
2024/01/29 01:46:06;;;;;;;6.20;3.40;;;5.00;99.90;;;;;;5096113;28;20043;-89
2024/01/29 01:48:33;;;;;;;5.28;3.50;;;4.40;99.90;;;;;;5069768;28;20120;-89
2024/01/29 01:50:59;;;;;;;6.13;3.60;;;4.30;99.90;;;;;;5079252;28;20042;-89
2024/01/29 01:53:26;;;;;;;6.47;3.50;;;4.30;99.90;;;;;;5070744;28;20036;-89
2024/01/29 01:55:52;;;;;;;4.03;3.28;;;4.30;99.90;;;;;;5094387;28;20040;-89
2024/01/29 01:58:19;;;;;;;6.50;3.53;;;4.30;99.90;;;;;;5072740;28;20438;-88
2024/01/29 02:00:45;;;;;;;5.93;3.22;;;4.20;99.90;;;;;;5072442;28;20036;-89
2024/01/29 02:03:11;;;;;;;6.70;3.65;;;4.60;99.90;;;;;;5081294;28;20122;-89
2024/01/29 02:05:37;;;;;;;7.88;3.78;;;5.00;99.90;;;;;;5074132;28;20051;-90
2024/01/29 02:08:03;;;;;;;5.78;3.78;;;5.10;99.90;;;;;;5096059;28;20131;-89
2024/01/29 02:10:29;;;;;;;6.53;3.90;;;4.20;99.90;;;;;;5094017;28;20039;-89
2024/01/29 02:12:55;;;;;;;6.03;3.40;;;4.20;99.90;;;;;;5090423;28;20086;-90
2024/01/29 02:15:21;;;;;;;7.07;4.03;;;4.40;99.90;;;;;;5080555;28;20499;-90
2024/01/29 02:17:47;;;;;;;7.20;3.75;;;4.70;99.90;;;;;;5074029;28;20040;-90
2024/01/29 02:20:14;;;;;;;5.97;3.67;;;4.20;99.90;;;;;;5070078;28;21562;-90
2024/01/29 02:22:44;;;;;;;4.68;3.50;;;4.20;99.90;;;;;;5073162;28;20036;-89
2024/01/29 02:25:10;;;;;;;6.72;3.83;;;4.80;99.90;;;;;;5093300;28;20041;-89
2024/01/29 02:27:36;;;;;;;7.78;4.22;;;5.10;99.90;;;;;;5072321;28;20036;-90
2024/01/29 02:30:02;;;;;;;6.63;3.80;;;4.20;99.90;;;;;;5074359;28;20044;-89
2024/01/29 02:32:27;;;;;;;5.88;3.85;;;4.10;99.90;;;;;;5063370;28;20434;-89
2024/01/29 02:34:53;;;;;;;6.70;4.10;;;4.10;99.90;;;;;;5080522;28;20470;-89
2024/01/29 02:37:19;;;;;;;6.35;3.97;;;4.10;99.90;;;;;;5098046;28;20032;-90
2024/01/29 02:39:45;;;;;;;5.82;3.80;;;4.80;99.90;;;;;;5069435;28;20035;-89
2024/01/29 02:42:11;;;;;;;5.63;3.50;;;4.00;99.90;;;;;;5090703;28;20114;-89
2024/01/29 02:44:36;;;;;;;6.47;3.65;;;4.00;99.90;;;;;;5065985;28;20452;-89
2024/01/29 02:47:02;;;;;;;6.38;3.35;;;4.50;99.90;;;;;;5071795;28;20044;-89
2024/01/29 02:49:28;;;;;;;5.85;3.90;;;3.90;99.90;;;;;;5072326;28;20096;-90
2024/01/29 02:51:53;;;;;;;5.72;3.55;;;3.90;99.90;;;;;;5091144;28;20039;-89
2024/01/29 02:54:19;;;;;;;5.35;3.63;;;3.80;99.90;;;;;;5087233;28;20032;-90
2024/01/29 02:56:44;;;;;;;6.03;3.45;;;3.80;99.90;;;;;;5071043;28;20039;-89
2024/01/29 02:59:10;;;;;;;6.10;3.97;;;3.70;99.90;;;;;;5082512;28;20536;-88
2024/01/29 03:01:36;;;;;;;5.40;3.67;;;4.20;99.90;;;;;;5091061;28;20051;-90
2024/01/29 03:04:01;;;;;;;6.97;4.13;;;4.30;99.90;;;;;;5092023;28;20035;-87
2024/01/29 03:06:27;;;;;;;6.45;3.67;;;3.70;99.90;;;;;;5070991;28;20507;-89
2024/01/29 03:08:52;;;;;;;6.70;4.50;;;4.80;99.90;;;;;;5072447;28;20427;-90
2024/01/29 03:11:18;;;;;;;5.82;3.88;;;3.60;99.90;;;;;;5070132;28;20090;-90
2024/01/29 03:13:46;;;;;;;6.18;3.83;;;3.60;99.90;;;;;;5072760;28;20036;-88
2024/01/29 03:16:11;;;;;;;6.38;4.00;;;3.60;99.90;;;;;;5107711;28;20043;-89
2024/01/29 03:18:37;;;;;;;6.80;3.80;;;3.60;99.90;;;;;;5075469;28;20044;-88
2024/01/29 03:21:03;;;;;;;6.68;4.00;;;3.60;99.90;;;;;;5079692;28;20042;-89
2024/01/29 03:23:29;;;;;;;6.75;4.10;;;3.50;99.90;;;;;;5072777;28;20394;-89
2024/01/29 03:25:54;;;;;;;7.15;4.00;;;3.50;99.90;;;;;;5068130;28;20060;-88
2024/01/29 03:28:20;;;;;;;6.25;4.10;;;3.50;99.90;;;;;;5082130;28;20085;-88
2024/01/29 03:30:45;;;;;;;9.82;4.28;;;4.10;99.90;;;;;;5071932;28;20123;-90
2024/01/29 03:33:11;;;;;;;7.72;4.40;;;3.40;99.90;;;;;;5096741;28;20037;-89
2024/01/29 03:35:37;;;;;;;6.93;4.22;;;3.40;99.90;;;;;;5090398;28;20115;-89
2024/01/29 03:38:03;;;;;;;7.35;4.25;;;3.40;99.90;;;;;;5072148;28;20398;-89
2024/01/29 03:40:28;;;;;;;7.47;4.10;;;3.50;99.90;;;;;;5082681;28;20041;-88
2024/01/29 03:42:54;;;;;;;7.03;4.13;;;3.50;99.90;;;;;;5093746;28;20047;-88
2024/01/29 03:45:19;;;;;;;5.70;4.30;;;4.40;99.90;;;;;;5089430;28;20032;-88
2024/01/29 03:47:45;;;;;;;8.38;4.68;;;3.40;99.90;;;;;;5072375;28;20035;-89
2024/01/29 03:50:11;;;;;;;6.55;4.13;;;3.50;99.90;;;;;;5072536;28;20088;-89
2024/01/29 03:52:36;;;;;;;7.00;3.67;;;3.40;99.90;;;;;;5094205;28;20036;-89
2024/01/29 03:55:02;;;;;;;7.68;4.20;;;3.40;99.90;;;;;;5090751;28;20028;-89
2024/01/29 03:57:27;;;;;;;7.85;4.35;;;3.40;99.90;;;;;;5097744;28;20046;-89
2024/01/29 03:59:56;;;;;;;7.70;4.68;;;3.40;99.90;;;;;;5080573;28;20538;-89
2024/01/29 04:02:23;;;;;;;7.30;4.43;;;3.40;99.90;;;;;;5100198;28;20455;-88
2024/01/29 04:04:49;;;;;;;7.13;4.50;;;3.40;99.90;;;;;;5068001;28;20042;-89
2024/01/29 04:07:16;;;;;;;5.88;4.30;;;3.30;99.90;;;;;;5095459;28;20031;-89
2024/01/29 04:09:42;;;;;;;7.30;4.20;;;3.30;99.90;;;;;;5071666;28;20115;-90
2024/01/29 04:12:09;;;;;;;6.22;4.13;;;4.00;99.90;;;;;;5070148;28;20107;-89
2024/01/29 04:14:35;;;;;;;10.38;4.88;;;3.30;99.90;;;;;;5099104;28;20039;-90
2024/01/29 04:17:05;;;;;;;7.35;4.38;;;3.20;99.90;;;;;;5072229;28;20488;-90
2024/01/29 04:19:31;;;;;;;6.38;4.28;;;4.40;99.90;;;;;;5073890;28;20115;-90
2024/01/29 04:21:57;;;;;;;7.28;4.75;;;4.30;99.90;;;;;;5072612;28;20609;-89
2024/01/29 04:24:23;;;;;;;6.53;4.22;;;4.00;99.90;;;;;;5089541;28;20040;-89
2024/01/29 04:26:49;;;;;;;6.68;4.30;;;3.10;99.90;;;;;;5075239;28;20125;-90
2024/01/29 04:29:15;;;;;;;5.28;3.92;;;3.10;99.90;;;;;;5088991;28;20072;-89
2024/01/29 04:31:40;;;;;;;10.98;4.65;;;4.30;99.90;;;;;;5080002;28;20046;-90
2024/01/29 04:34:06;;;;;;;7.57;4.28;;;4.30;99.90;;;;;;5095813;28;20058;-89
2024/01/29 04:36:32;;;;;;;7.07;4.00;;;4.20;99.90;;;;;;5074608;28;20111;-89
2024/01/29 04:38:59;;;;;;;6.60;4.43;;;3.00;99.90;;;;;;5104076;28;20068;-90
2024/01/29 04:41:25;;;;;;;9.32;4.68;;;4.10;99.90;;;;;;5090205;28;20437;-90
2024/01/29 04:43:50;;;;;;;8.10;4.65;;;3.90;99.90;;;;;;5071706;28;20040;-90
2024/01/29 04:46:16;;;;;;;6.50;4.30;;;4.20;99.90;;;;;;5097807;28;20032;-89
2024/01/29 04:48:42;;;;;;;8.25;4.43;;;4.10;99.90;;;;;;5073301;28;20097;-90
2024/01/29 04:51:08;;;;;;;7.10;4.20;;;3.10;99.90;;;;;;5072946;28;20127;-89
2024/01/29 04:53:35;;;;;;;7.15;4.72;;;3.10;99.90;;;;;;5087683;28;20076;-89
2024/01/29 04:56:02;;;;;;;7.30;4.20;;;4.10;99.90;;;;;;5082703;28;20045;-89
2024/01/29 04:58:29;;;;;;;7.38;4.85;;;3.10;99.90;;;;;;5072438;28;20406;-89
2024/01/29 05:00:54;;;;;;;7.43;4.60;;;3.10;99.90;;;;;;5074540;28;20043;-90
2024/01/29 05:03:20;;;;;;;10.18;5.13;;;3.10;99.90;;;;;;5072329;28;20040;-89
2024/01/29 05:05:46;;;;;;;7.05;4.90;;;3.10;99.90;;;;;;5074785;28;20048;-90
2024/01/29 05:08:13;;;;;;;6.70;4.90;;;3.10;99.90;;;;;;5073386;28;20040;-89
2024/01/29 05:10:39;;;;;;;7.15;4.88;;;4.10;99.90;;;;;;5095666;28;20470;-89
2024/01/29 05:13:04;;;;;;;8.07;4.93;;;3.10;99.90;;;;;;5075164;28;20060;-89
2024/01/29 05:15:30;;;;;;;7.30;4.70;;;3.10;99.90;;;;;;5069451;28;20047;-88
2024/01/29 05:17:56;;;;;;;7.75;4.72;;;3.10;99.90;;;;;;5086927;28;20495;-89
2024/01/29 05:20:22;;;;;;;6.88;4.55;;;3.10;99.90;;;;;;5089587;28;20032;-88
2024/01/29 05:22:48;;;;;;;7.57;5.10;;;3.10;99.90;;;;;;5089627;28;20561;-89
2024/01/29 05:25:13;;;;;;;8.85;4.80;;;3.90;99.90;;;;;;5090065;28;20177;-89
2024/01/29 05:27:39;;;;;;;7.55;5.20;;;3.10;99.90;;;;;;5068127;28;20440;-89
2024/01/29 05:30:05;;;;;;;7.72;5.07;;;3.10;99.90;;;;;;5089263;28;20462;-87
2024/01/29 05:32:31;;;;;;;8.48;5.10;;;3.20;99.90;;;;;;5074491;28;20409;-89
2024/01/29 05:34:57;;;;;;;7.18;4.68;;;3.20;99.90;;;;;;5072611;28;20036;-89
2024/01/29 05:37:23;;;;;;;7.68;5.03;;;3.20;99.90;;;;;;5090677;28;20407;-89
2024/01/29 05:39:48;;;;;;;9.15;5.40;;;4.20;99.90;;;;;;5072848;28;20130;-89
2024/01/29 05:42:14;;;;;;;6.65;4.85;;;3.20;99.90;;;;;;5073762;28;20039;-89
2024/01/29 05:44:40;;;;;;;8.15;5.30;;;3.30;99.90;;;;;;5091066;28;20534;-89
2024/01/29 05:47:06;;;;;;;10.57;5.43;;;4.30;99.90;;;;;;5072494;28;20048;-89
2024/01/29 05:49:31;;;;;;;8.73;5.13;;;3.30;99.90;;;;;;5067073;28;20039;-89
2024/01/29 05:51:57;;;;;;;10.50;5.60;;;3.40;99.90;;;;;;5072090;28;20032;-89
2024/01/29 05:54:22;;;;;;;7.90;4.93;;;3.40;99.90;;;;;;5072479;28;20032;-89
2024/01/29 05:56:48;;;;;;;8.65;5.20;;;3.40;99.90;;;;;;5088822;28;20527;-89
2024/01/29 05:59:14;;;;;;;8.02;5.22;;;4.30;99.90;;;;;;5072264;28;20051;-89
2024/01/29 06:01:40;;;;;;;7.10;5.03;;;3.40;99.90;;;;;;5090252;28;20540;-89
2024/01/29 06:04:06;;;;;;;8.48;5.25;;;4.30;99.90;;;;;;5071925;28;20050;-88
2024/01/29 06:06:31;;;;;;;11.50;5.28;;;4.50;99.90;;;;;;5070835;28;20075;-89
2024/01/29 06:08:57;;;;;;;8.23;5.13;;;3.60;99.90;;;;;;5095009;28;20040;-89
2024/01/29 06:11:22;;;;;;;7.90;5.00;;;3.30;99.90;;;;;;5074993;28;20036;-90
2024/01/29 06:13:48;;;;;;;7.57;4.97;;;4.00;99.90;;;;;;5077186;28;20032;-89
2024/01/29 06:16:25;;;;;;;8.60;4.97;;;3.30;99.90;;;;;;5072751;28;20494;-89
2024/01/29 06:18:51;;;;;;;8.52;5.68;;;3.30;99.90;;;;;;5071435;28;20051;-90
2024/01/29 06:21:17;;;;;;;7.95;5.15;;;3.30;99.90;;;;;;5072673;28;20035;-89
2024/01/29 06:23:42;;;;;;;7.72;5.05;;;3.30;99.90;;;;;;5071517;28;20028;-90
2024/01/29 06:26:09;;;;;;;9.02;5.25;;;4.50;99.90;;;;;;5098543;28;20172;-88
2024/01/29 06:28:34;;;;;;;7.97;5.30;;;4.10;99.90;;;;;;5090922;28;20050;-89
2024/01/29 06:31:00;;;;;;;9.43;5.35;;;4.30;99.90;;;;;;5088085;28;20466;-89
2024/01/29 06:33:26;;;;;;;8.50;5.25;;;3.30;99.90;;;;;;5088697;28;20101;-89
2024/01/29 06:35:51;;;;;;;7.32;4.85;;;3.30;99.90;;;;;;5087464;28;20024;-89
2024/01/29 06:38:18;;;;;;;9.15;5.95;;;4.60;99.90;;;;;;5071120;28;20495;-89
2024/01/29 06:40:43;;;;;;;10.63;6.03;;;4.60;99.90;;;;;;5094225;28;20040;-89
2024/01/29 06:43:09;;;;;;;7.85;4.93;;;4.20;99.90;;;;;;5067620;28;20055;-89
2024/01/29 06:45:35;;;;;;;7.47;5.25;;;4.10;99.90;;;;;;5085798;28;20108;-89
2024/01/29 06:48:01;;;;;;;10.15;5.50;;;4.20;99.90;;;;;;5072354;28;20127;-88
2024/01/29 06:50:27;;;;;;;7.57;5.88;;;3.20;99.90;;;;;;5069791;28;20032;-89
2024/01/29 06:52:53;;;;;;;8.48;5.55;;;3.20;99.90;;;;;;5070360;28;20024;-88
2024/01/29 06:55:20;;;;;;;10.15;6.20;;;3.20;99.90;;;;;;5071273;28;20036;-88
2024/01/29 06:57:46;;;;;;;9.45;5.70;;;4.40;99.90;;;;;;5089576;28;20120;-89
2024/01/29 07:00:13;;;;;;;8.77;5.22;;;3.20;99.90;;;;;;5088561;28;20177;-88
2024/01/29 07:02:38;;;;;;;9.82;5.88;;;3.20;99.90;;;;;;5073938;28;20040;-88
2024/01/29 07:05:04;;;;;;;10.15;5.78;;;4.60;99.90;;;;;;5073190;28;20051;-88
2024/01/29 07:07:30;;;;;;;7.55;5.53;;;3.20;99.90;;;;;;5087893;28;20926;-89
2024/01/29 07:09:56;;;;;;;9.00;5.68;;;3.20;99.90;;;;;;5076405;28;20039;-88
2024/01/29 07:12:21;;;;;;;8.35;5.82;;;3.20;99.90;;;;;;5087182;28;20036;-89
2024/01/29 07:14:47;;;;;;;8.55;5.93;;;3.20;99.90;;;;;;5071483;28;20032;-87
2024/01/29 07:17:13;;;;;;;9.93;5.88;;;3.20;99.90;;;;;;5096707;28;20028;-89
2024/01/29 07:19:39;;;;;;;8.65;5.53;;;3.20;99.90;;;;;;5072506;28;20476;-88
2024/01/29 07:22:08;;;;;;;10.27;5.88;;;3.20;99.90;;;;;;5070088;28;20051;-89
2024/01/29 07:24:34;;;;;;;10.27;6.22;;;3.20;99.90;;;;;;5065136;28;20172;-88
2024/01/29 07:26:59;;;;;;;10.45;5.78;;;3.20;99.90;;;;;;5074825;28;21041;-87
2024/01/29 07:29:31;;;;;;;10.50;6.32;;;3.30;99.90;;;;;;5067132;28;20116;-89
2024/01/29 07:31:58;;;;;;;9.02;5.93;;;3.30;99.90;;;;;;5081581;28;20051;-88
2024/01/29 07:34:24;;;;;;;9.10;6.57;;;3.30;99.90;;;;;;5077968;28;20111;-89
2024/01/29 07:36:50;;;;;;;9.18;5.97;;;3.30;99.90;;;;;;5073073;28;20036;-88
2024/01/29 07:39:15;;;;;;;9.80;6.25;;;3.30;99.90;;;;;;5071271;28;20502;-88
2024/01/29 07:41:41;;;;;;;9.40;6.10;;;3.40;99.90;;;;;;5071109;28;20114;-88
2024/01/29 07:44:07;;;;;;;8.90;6.03;;;3.30;99.90;;;;;;5073912;28;20032;-89
2024/01/29 07:46:33;;;;;;;10.43;6.25;;;3.90;99.90;;;;;;5092183;28;20515;-89
2024/01/29 07:49:03;;;;;;;11.20;6.68;;;3.50;99.90;;;;;;5075173;28;20109;-88
2024/01/29 07:51:29;;;;;;;8.57;5.75;;;4.80;99.90;;;;;;5075876;28;20068;-88
2024/01/29 07:53:55;;;;;;;9.45;6.22;;;3.60;99.90;;;;;;5096491;28;20081;-88
2024/01/29 07:56:21;;;;;;;10.48;6.25;;;3.60;99.90;;;;;;5074980;28;20032;-89
2024/01/29 07:58:47;;;;;;;8.52;6.22;;;3.80;99.90;;;;;;5087767;28;20058;-89
2024/01/29 08:01:12;;;;;;;9.20;5.85;;;4.60;99.90;;;;;;5109072;28;20508;-88
2024/01/29 08:03:38;;;;;;;10.43;6.45;;;3.60;99.90;;;;;;5088110;28;20082;-88
2024/01/29 08:06:04;;;;;;;10.82;6.38;;;3.60;99.90;;;;;;5114883;27;20452;-89
2024/01/29 08:08:30;;;;;;;9.93;6.43;;;3.70;99.90;;;;;;5074212;28;20043;-89
2024/01/29 08:11:00;;;;;;;8.60;6.15;;;3.70;99.90;;;;;;5075644;28;20032;-89
2024/01/29 08:13:27;;;;;;;12.23;6.38;;;3.70;99.90;;;;;;5070551;28;20121;-89
2024/01/29 08:15:53;;;;;;;9.85;6.75;;;3.70;99.90;;;;;;5074913;28;20028;-88
2024/01/29 08:18:18;;;;;;;9.75;6.55;;;3.90;99.90;;;;;;5071373;28;20042;-88
2024/01/29 08:20:44;;;;;;;9.10;6.30;;;5.00;99.90;;;;;;5090633;28;20066;-90
2024/01/29 08:23:11;;;;;;;8.73;6.28;;;3.90;99.90;;;;;;5088851;28;20046;-88
2024/01/29 08:25:36;;;;;;;8.27;6.20;;;4.90;99.90;;;;;;5072983;28;20156;-89
2024/01/29 08:28:02;;;;;;;8.95;6.65;;;4.70;99.90;;;;;;5097095;28;20524;-88
2024/01/29 08:30:28;;;;;;;11.35;6.40;;;4.10;99.90;;;;;;5068755;28;20048;-89
2024/01/29 08:32:53;;;;;;;8.90;6.68;;;4.20;99.90;;;;;;5106523;28;20415;-90
2024/01/29 08:35:19;;;;;;;11.57;6.78;;;5.20;99.90;;;;;;5071015;28;20123;-90
2024/01/29 08:37:45;;;;;;;9.77;7.13;;;4.30;99.90;;;;;;5070629;28;20119;-88
2024/01/29 08:40:11;;;;;;;8.85;6.43;;;4.30;99.90;;;;;;5086428;28;20503;-89
2024/01/29 08:42:36;;;;;;;14.45;6.78;;;4.30;99.90;;;;;;5067664;28;20040;-89
2024/01/29 08:45:03;;;;;;;10.05;6.88;;;4.40;99.90;;;;;;5069558;28;20047;-88
2024/01/29 08:47:28;;;;;;;8.77;6.55;;;4.40;99.90;;;;;;5074682;28;20068;-89
2024/01/29 08:49:54;;;;;;;10.75;7.00;;;4.50;99.90;;;;;;5072995;28;20531;-88
2024/01/29 08:52:20;;;;;;;9.20;6.47;;;4.50;99.90;;;;;;5070011;28;20040;-88
2024/01/29 08:54:45;;;;;;;10.50;6.60;;;5.50;99.90;;;;;;5099777;28;20067;-88
2024/01/29 08:57:11;;;;;;;10.40;6.95;;;4.60;99.90;;;;;;5071982;28;20028;-89
2024/01/29 08:59:38;;;;;;;12.23;7.93;;;5.50;99.90;;;;;;5067350;28;20036;-89
2024/01/29 09:02:04;;;;;;;11.77;7.65;;;4.70;99.90;;;;;;5067601;28;20491;-89
2024/01/29 09:04:29;;;;;;;12.20;8.00;;;5.10;99.90;;;;;;5088684;28;20032;-89
2024/01/29 09:06:55;;;;;;;11.38;7.38;;;4.70;99.90;;;;;;5071563;28;20039;-89
2024/01/29 09:09:21;;;;;;;10.55;6.95;;;5.70;99.90;;;;;;5085494;28;20052;-89
2024/01/29 09:11:46;;;;;;;10.20;7.57;;;4.80;99.90;;;;;;5072847;28;20127;-89
2024/01/29 09:14:12;;;;;;;12.50;7.65;;;5.80;99.90;;;;;;5107185;28;20444;-89
2024/01/29 09:16:39;;;;;;;10.75;7.00;;;4.80;99.90;;;;;;5069524;28;20126;-89
2024/01/29 09:19:04;;;;;;;11.98;7.53;;;5.50;99.90;;;;;;5090023;28;20117;-90
2024/01/29 09:21:34;;;;;;;10.98;7.32;;;5.40;99.90;;;;;;5087002;28;20089;-89
2024/01/29 09:24:00;;;;;;;10.48;7.57;;;4.90;99.90;;;;;;5070810;28;20119;-89
2024/01/29 09:26:25;;;;;;;11.43;7.97;;;5.00;99.90;;;;;;5073014;28;20164;-89
2024/01/29 09:28:51;;;;;;;11.43;7.63;;;5.00;99.90;;;;;;5085703;28;20043;-89
2024/01/29 09:31:17;;;;;;;11.93;8.25;;;5.10;99.90;;;;;;5070182;28;20043;-89
2024/01/29 09:33:44;;;;;;;12.25;7.63;;;5.10;99.90;;;;;;5072136;28;20070;-89
2024/01/29 09:36:09;;;;;;;10.68;7.43;;;6.20;99.90;;;;;;5070041;28;20037;-89
2024/01/29 09:38:35;;;;;;;10.80;7.70;;;5.20;99.90;;;;;;5085116;28;20573;-89
2024/01/29 09:41:03;;;;;;;11.35;7.30;;;6.00;99.90;;;;;;5102088;28;20436;-89
2024/01/29 09:43:31;;;;;;;11.60;7.78;;;5.20;99.90;;;;;;5088532;28;20048;-89
2024/01/29 09:45:58;;;;;;;14.00;7.97;;;6.40;99.90;;;;;;5073312;28;20048;-89
2024/01/29 09:48:24;;;;;;;11.20;7.40;;;5.30;99.90;;;;;;5088415;28;20040;-89
2024/01/29 09:50:52;;;;;;;11.00;7.45;;;6.20;99.90;;;;;;5070246;28;20449;-89
2024/01/29 09:53:20;;;;;;;11.43;8.13;;;6.40;99.90;;;;;;5081260;28;20081;-89
2024/01/29 09:55:46;;;;;;;11.13;7.68;;;5.40;99.90;;;;;;5106187;28;20040;-88
2024/01/29 09:58:12;;;;;;;12.35;7.60;;;6.50;99.90;;;;;;5076919;28;20032;-88
2024/01/29 10:00:37;;;;;;;14.13;8.77;;;6.20;99.90;;;;;;5096323;28;20082;-89
2024/01/29 10:03:05;;;;;;;12.20;8.20;;;6.20;99.90;;;;;;5071614;28;20039;-89
2024/01/29 10:05:31;;;;;;;13.95;8.50;;;5.70;99.90;;;;;;5070973;28;20040;-89
2024/01/29 10:08:01;;;;;;;14.45;8.65;;;6.30;99.90;;;;;;5089005;28;20047;-90
2024/01/29 10:10:27;;;;;;;11.00;8.15;;;6.10;99.90;;;;;;5082927;28;20563;-89
2024/01/29 10:13:06;;;;;;;12.73;8.38;;;6.50;99.90;;;;;;5088544;28;20115;-89
2024/01/29 10:15:32;;;;;;;13.45;8.68;;;5.70;99.90;;;;;;5070784;28;20028;-90
2024/01/29 10:17:57;;;;;;;13.90;8.73;;;6.60;99.90;;;;;;5072431;28;20462;-88
2024/01/29 10:20:23;;;;;;;13.65;8.75;;;6.90;99.90;;;;;;5087917;28;20035;-89
2024/01/29 10:22:58;;;;;;;13.50;9.10;;;5.90;99.90;;;;;;5071368;28;20079;-89
2024/01/29 10:25:23;;;;;;;11.93;8.73;;;7.20;99.90;;;;;;5093902;28;20393;-89
2024/01/29 10:27:49;;;;;;;13.32;9.73;;;6.70;99.90;;;;;;5073115;28;20047;-89
2024/01/29 10:30:15;;;;;;;14.85;8.88;;;6.30;99.90;;;;;;5089378;28;20048;-89
2024/01/29 10:32:40;;;;;;;12.50;9.15;;;6.40;99.90;;;;;;5089481;28;20054;-89
2024/01/29 10:35:06;;;;;;;12.70;8.65;;;7.30;99.90;;;;;;5088565;28;20032;-89
2024/01/29 10:37:32;;;;;;;12.80;8.80;;;6.60;99.90;;;;;;5072858;28;20115;-89
2024/01/29 10:40:02;;;;;;;14.05;9.48;;;7.60;99.90;;;;;;5071488;28;20070;-89
2024/01/29 10:42:28;;;;;;;12.82;9.18;;;7.10;99.90;;;;;;5087306;28;20051;-89
2024/01/29 10:44:58;;;;;;;13.30;9.00;;;7.00;99.90;;;;;;5101220;28;20149;-89
2024/01/29 10:47:38;;;;;;;16.35;9.70;;;7.30;99.90;;;;;;5087549;28;20048;-89
2024/01/29 10:50:04;;;;;;;15.25;9.60;;;7.00;99.90;;;;;;5104517;28;20036;-89
2024/01/29 10:52:30;;;;;;;12.80;9.27;;;7.00;99.90;;;;;;5086486;28;20105;-89
2024/01/29 10:54:57;;;;;;;12.93;9.63;;;7.60;99.90;;;;;;5108936;27;20157;-88
2024/01/29 10:57:24;;;;;;;16.00;9.85;;;7.20;99.90;;;;;;5066237;28;20054;-88
2024/01/29 10:59:52;;;;;;;15.60;10.02;;;7.20;99.90;;;;;;5066451;28;20122;-89
2024/01/29 11:02:19;;;;;;;15.70;9.30;;;7.80;99.90;;;;;;5067764;28;20119;-89
2024/01/29 11:04:44;;;;;;;16.88;10.32;;;7.70;99.90;;;;;;5082639;28;20032;-88
2024/01/29 11:07:17;;;;;;;15.20;10.13;;;7.40;99.90;;;;;;5064907;28;20089;-89
2024/01/29 11:10:03;;;;;;;13.48;9.75;;;7.20;99.90;;;;;;5064508;28;20555;-89
2024/01/29 11:12:30;;;;;;;14.10;9.55;;;7.20;99.90;;;;;;5085122;28;20028;-88
2024/01/29 11:15:02;;;;;;;13.95;9.93;;;7.70;99.90;;;;;;5084754;28;20040;-87
2024/01/29 11:17:27;;;;;;;15.05;10.15;;;7.30;99.90;;;;;;5069769;28;20055;-88
2024/01/29 11:19:53;;;;;;;13.52;10.05;;;7.30;99.90;;;;;;5087386;28;20420;-88
2024/01/29 11:22:19;;;;;;;12.52;10.00;;;7.70;99.90;;;;;;5101636;28;20039;-88
2024/01/29 11:24:44;;;;;;;13.68;9.65;;;8.00;99.90;;;;;;5066406;28;20047;-88
2024/01/29 11:27:12;;;;;;;14.45;10.07;;;7.50;99.90;;;;;;5086796;28;20111;-88
2024/01/29 11:29:37;;;;;;;15.77;10.10;;;8.10;99.90;;;;;;5086454;28;20127;-88
2024/01/29 11:32:06;;;;;;;14.68;9.80;;;7.50;99.90;;;;;;5093339;28;20765;-88
2024/01/29 11:34:32;;;;;;;18.13;11.32;;;7.50;99.90;;;;;;5092606;28;20119;-88
2024/01/29 11:36:58;;;;;;;15.48;10.20;;;7.70;99.90;;;;;;5088672;28;20226;-88
2024/01/29 11:39:27;;;;;;;14.40;9.90;;;7.50;99.90;;;;;;5074938;28;20036;-89
2024/01/29 11:41:53;;;;;;;15.95;10.95;;;7.80;99.90;;;;;;5068864;28;20044;-89
2024/01/29 11:44:21;;;;;;;14.05;9.73;;;7.60;99.90;;;;;;5072203;28;20040;-91
2024/01/29 11:46:48;;;;;;;14.23;9.90;;;7.60;99.90;;;;;;5088102;28;20052;-88
2024/01/29 11:49:26;;;;;;;16.52;10.35;;;7.70;99.90;;;;;;5093055;28;20067;-89
2024/01/29 11:51:54;;;;;;;18.45;10.70;;;7.70;99.90;;;;;;5088969;28;20036;-89
2024/01/29 11:54:21;;;;;;;20.40;11.25;;;8.50;99.90;;;;;;5092859;28;20036;-89
2024/01/29 11:56:47;;;;;;;18.63;11.10;;;8.10;99.90;;;;;;5084247;28;20116;-89
2024/01/29 11:59:13;;;;;;;16.10;10.98;;;8.20;99.90;;;;;;5089321;28;20041;-89
2024/01/29 12:01:38;;;;;;;18.60;11.35;;;8.00;99.90;;;;;;5106073;28;20071;-90
2024/01/29 12:04:04;;;;;;;17.70;10.93;;;8.00;99.90;;;;;;5090335;28;20067;-89
2024/01/29 12:06:34;;;;;;;18.60;11.10;;;7.70;99.90;;;;;;5088322;28;20097;-90
2024/01/29 12:09:00;;;;;;;18.23;10.85;;;8.00;99.90;;;;;;5074101;28;20054;-91
2024/01/29 12:11:26;;;;;;;19.77;11.32;;;8.00;99.90;;;;;;5075121;28;20032;-89
2024/01/29 12:13:55;;;;;;;17.80;11.40;;;8.20;99.90;;;;;;5103015;28;20063;-90
2024/01/29 12:16:23;;;;;;;19.17;11.15;;;8.20;99.90;;;;;;5068865;28;20071;-90
2024/01/29 12:18:49;;;;;;;23.40;12.57;;;7.90;99.90;;;;;;5084996;28;20073;-90
2024/01/29 12:21:15;;;;;;;21.92;12.88;;;8.40;99.90;;;;;;5090864;28;20036;-90
2024/01/29 12:23:41;;;;;;;23.35;13.82;;;8.40;99.90;;;;;;5090898;28;20045;-90
2024/01/29 12:26:07;;;;;;;23.02;12.95;;;8.80;99.90;;;;;;5094180;28;20040;-90
2024/01/29 12:28:33;;;;;;;22.92;11.82;;;8.30;99.90;;;;;;5091951;28;20090;-89
2024/01/29 12:31:04;;;;;;;23.77;11.95;;;8.40;99.90;;;;;;5095946;28;20047;-90
2024/01/29 12:33:30;;;;;;;24.77;12.85;;;7.80;99.90;;;;;;5090549;28;20044;-91
2024/01/29 12:36:15;;;;;;;23.77;12.65;;;8.20;99.90;;;;;;5080173;28;20036;-90
2024/01/29 12:38:43;;;;;;;23.13;12.88;;;7.70;99.90;;;;;;5094098;28;20087;-90
2024/01/29 12:41:09;;;;;;;21.75;11.70;;;7.70;99.90;;;;;;5095277;28;20075;-89
2024/01/29 12:43:35;;;;;;;18.67;11.27;;;8.10;99.90;;;;;;5096463;28;20091;-90
2024/01/29 12:46:12;;;;;;;19.90;11.05;;;7.80;99.90;;;;;;5088695;28;20035;-90
2024/01/29 12:48:38;;;;;;;19.15;11.85;;;7.60;99.90;;;;;;5080075;28;20044;-89